Terminal Aerodrome Forecast
Issued by NWS

Home | Current Version | Previous Version | Graphics & Text | Print | Product List | Glossary On
Versions: 1 2 3 4 5 6 7 8 9 10 11 12 13 14 15 16 17 18 19 20 21 22 23
000
FTUS43 KIWX 211600 AAC
TAFSBN
TAF AMD
KSBN 211647Z 2117/2212 VRB04KT P6SM BKN006
      TEMPO 2117/2118 SCT006 BKN100
     FM211800 20010KT P6SM SCT060 BKN100
     FM220000 21007KT P6SM VCTS BKN060CB
     FM220600 23007KT 4SM TSRA OVC035CB=

USA.gov is the U.S. government's official web portal to all federal, state and local government web resources and services.